XDE weather

Diebougou Airport
Diebougou, Bougouriba, Burkina Faso

Public forecast

Using degrees Celsius for public forecast. Weather courtesy of forecast.io.

Closest aviation weather report (METAR) to Diebougou Airport

Report is more than 6 hours old.

Closest report is Gaoua Airport, 34.4 nm (63.6 km) S. Retrieved 2009/09/21 17:00 UTC (10 years ago):

DFOG 211700Z 18004KT 9999 FEW020 FEW040CB NW NE BKN260 30/23

Closest aviation forecast (TAF) to Diebougou Airport

Closest forecast is Bobo Dioulasso Airport, 64.9 nm (120.3 km) WNW. Retrieved 2019/10/17 12:15 UTC (2 hours ago):

TAF DFOO 171100Z 1712/1812 22008KT 9999 FEW020 TEMPO 1716/1724 4000 TSRA SCT020 SCT033CB